createdAt,value
2023-04-26T00:01:53.183Z,98611.44
2023-04-26T00:04:58.844Z,98609.81
2023-04-26T00:08:01.595Z,98613.28
2023-04-26T00:11:04.113Z,98608.44
2023-04-26T00:14:06.770Z,98610.09
2023-04-26T00:17:09.437Z,98615.94
2023-04-26T00:20:14.097Z,98613.53
2023-04-26T00:23:17.361Z,98618.41
2023-04-26T00:26:19.829Z,98610.97
2023-04-26T00:29:22.369Z,98613.47
2023-04-26T00:32:24.891Z,98609.56
2023-04-26T00:35:28.848Z,98610.59
2023-04-26T00:38:31.604Z,98617.06
2023-04-26T00:41:34.289Z,98608.91
2023-04-26T00:44:40.006Z,98606.59
2023-04-26T00:47:42.687Z,98609.81
2023-04-26T00:50:47.691Z,98612.44
2023-04-26T00:53:50.489Z,98616.09
2023-04-26T00:56:53.332Z,98616.69
2023-04-26T00:59:56.360Z,98621.75
2023-04-26T01:02:59.044Z,98615.09
2023-04-26T01:06:02.991Z,98614.38
2023-04-26T01:09:09.876Z,98621.53
2023-04-26T01:12:13.074Z,98624.88
2023-04-26T01:15:15.624Z,98626.00
2023-04-26T01:18:18.243Z,98629.13
2023-04-26T01:21:22.796Z,98628.19
2023-04-26T01:24:26.704Z,98622.75
2023-04-26T01:27:29.248Z,98622.06
2023-04-26T01:30:31.801Z,98614.59
2023-04-26T01:33:34.273Z,98616.72
2023-04-26T01:36:37.018Z,98608.25
2023-04-26T01:39:41.009Z,98614.09
2023-04-26T01:42:43.660Z,98619.84
2023-04-26T01:45:47.763Z,98614.81
2023-04-26T01:48:50.540Z,98622.56
2023-04-26T01:51:53.387Z,98620.44
2023-04-26T01:54:57.342Z,98620.75
2023-04-26T01:57:59.913Z,98621.44
2023-04-26T02:01:07.968Z,98620.34
2023-04-26T02:04:10.632Z,98620.91
2023-04-26T02:07:13.161Z,98619.91
2023-04-26T02:10:17.037Z,98620.31
2023-04-26T02:13:19.564Z,98611.56
2023-04-26T02:16:22.385Z,98606.94
2023-04-26T02:19:25.057Z,98610.22
2023-04-26T02:22:27.716Z,98614.41
2023-04-26T02:25:32.198Z,98607.38
2023-04-26T02:28:34.708Z,98615.03
2023-04-26T02:31:37.286Z,98606.81
2023-04-26T02:34:39.796Z,98613.88
2023-04-26T02:37:42.281Z,98612.72
2023-04-26T02:40:46.154Z,98615.16
2023-04-26T02:43:48.647Z,98624.41
2023-04-26T02:46:51.255Z,98618.25
2023-04-26T02:49:53.733Z,98620.59
2023-04-26T02:52:56.292Z,98624.56
2023-04-26T02:56:00.982Z,98625.44
2023-04-26T02:59:03.498Z,98622.94
2023-04-26T03:02:06.226Z,98625.56
2023-04-26T03:05:10.720Z,98620.97
2023-04-26T03:08:13.480Z,98628.16
2023-04-26T03:11:17.637Z,98612.47
2023-04-26T03:14:20.155Z,98617.06
2023-04-26T03:17:22.822Z,98627.72
2023-04-26T03:20:25.597Z,98624.69
2023-04-26T03:23:28.700Z,98622.59
2023-04-26T03:26:32.609Z,98626.97
2023-04-26T03:29:35.267Z,98625.94
2023-04-26T03:32:38.386Z,98631.53
2023-04-26T03:35:41.018Z,98634.56
2023-04-26T03:38:43.875Z,98636.91
2023-04-26T03:41:47.844Z,98628.47
2023-04-26T03:44:50.548Z,98626.38
2023-04-26T03:47:53.356Z,98619.53
2023-04-26T03:50:56.261Z,98618.00
2023-04-26T03:53:59.881Z,98613.53
2023-04-26T03:57:03.880Z,98613.31
2023-04-26T04:00:10.107Z,98630.91
2023-04-26T04:03:12.925Z,98624.41
2023-04-26T04:06:15.784Z,98631.25
2023-04-26T04:09:18.296Z,98628.00
2023-04-26T04:12:22.918Z,98623.56
2023-04-26T04:15:25.652Z,98624.09
2023-04-26T04:18:28.268Z,98629.69
2023-04-26T04:21:32.053Z,98624.75
2023-04-26T04:24:34.652Z,98623.09
2023-04-26T04:27:38.992Z,98624.16
2023-04-26T04:30:43.619Z,98619.47
2023-04-26T04:33:46.438Z,98631.63
2023-04-26T04:36:48.937Z,98628.88
2023-04-26T04:39:51.549Z,98631.59
2023-04-26T04:42:55.736Z,98630.94
2023-04-26T04:45:58.900Z,98633.88
2023-04-26T04:49:02.152Z,98638.16
2023-04-26T04:52:05.336Z,98632.94
2023-04-26T04:55:08.458Z,98639.13
2023-04-26T04:58:14.036Z,98642.88
2023-04-26T05:01:16.633Z,98640.16
2023-04-26T05:04:19.489Z,98659.22
2023-04-26T05:07:24.422Z,98665.28
2023-04-26T05:10:27.262Z,98667.50
2023-04-26T05:13:31.213Z,98666.19
2023-04-26T05:16:35.551Z,98666.94
2023-04-26T05:19:38.233Z,98669.50
2023-04-26T05:22:41.358Z,98667.72
2023-04-26T05:25:43.929Z,98672.94
2023-04-26T05:28:47.861Z,98674.88
2023-04-26T05:31:50.725Z,98685.88
2023-04-26T05:34:54.486Z,98697.84
2023-04-26T05:37:57.041Z,98691.94
2023-04-26T05:40:59.599Z,98688.56
2023-04-26T05:44:03.939Z,98690.34
2023-04-26T05:47:06.539Z,98695.63
2023-04-26T05:50:10.157Z,98698.25
2023-04-26T05:53:12.796Z,98690.50
2023-04-26T05:56:15.527Z,98696.56
2023-04-26T05:59:19.486Z,98701.91
2023-04-26T06:02:22.106Z,98698.09
2023-04-26T06:05:25.009Z,98695.69
2023-04-26T06:08:28.369Z,98696.59
2023-04-26T06:11:31.202Z,98697.47
2023-04-26T06:14:35.114Z,98704.09
2023-04-26T06:17:37.709Z,98707.47
2023-04-26T06:20:40.365Z,98708.81
2023-04-26T06:23:43.204Z,98709.63
2023-04-26T06:26:45.805Z,98711.00
2023-04-26T06:29:50.543Z,98707.97
2023-04-26T06:32:53.169Z,98707.69
2023-04-26T06:35:55.845Z,98713.41
2023-04-26T06:38:58.413Z,98713.28
2023-04-26T06:42:01.370Z,98714.88
2023-04-26T06:45:06.567Z,98716.34
2023-04-26T06:48:09.288Z,98719.88
2023-04-26T06:51:12.115Z,98720.06
2023-04-26T06:54:14.986Z,98712.25
2023-04-26T06:57:17.618Z,98717.53
2023-04-26T07:00:22.596Z,98711.75
2023-04-26T07:03:25.748Z,98716.41
2023-04-26T07:06:28.548Z,98720.47
2023-04-26T07:09:31.689Z,98702.63
2023-04-26T07:12:34.255Z,98707.03
2023-04-26T07:15:38.440Z,98700.38
2023-04-26T07:18:41.273Z,98689.88
2023-04-26T07:21:43.921Z,98695.19
2023-04-26T07:24:46.479Z,98693.63
2023-04-26T07:27:51.618Z,98687.25
2023-04-26T07:30:55.778Z,98693.34
2023-04-26T07:33:58.371Z,98691.72
2023-04-26T07:37:01.683Z,98689.78
2023-04-26T07:40:08.039Z,98687.56
2023-04-26T07:43:10.694Z,98691.44
2023-04-26T07:46:14.944Z,98690.63
2023-04-26T07:49:17.565Z,98695.28
2023-04-26T07:52:20.539Z,98687.72
2023-04-26T07:55:23.204Z,98676.78
2023-04-26T07:58:25.823Z,98686.25
2023-04-26T08:01:30.320Z,98685.75
2023-04-26T08:04:34.750Z,98688.84
2023-04-26T08:07:37.715Z,98693.31
2023-04-26T08:10:41.752Z,98686.81
2023-04-26T08:13:45.041Z,98695.59
2023-04-26T08:16:49.140Z,98693.34
2023-04-26T08:19:51.693Z,98698.91
2023-04-26T08:22:56.774Z,98693.53
2023-04-26T08:25:59.647Z,98705.25
2023-04-26T08:29:02.281Z,98690.66
2023-04-26T08:32:07.180Z,98696.66
2023-04-26T08:35:10.683Z,98693.25
2023-04-26T08:38:13.417Z,98692.28
2023-04-26T08:41:16.766Z,98703.81
2023-04-26T08:44:24.234Z,98704.25
2023-04-26T08:47:31.641Z,98709.03
2023-04-26T08:50:34.890Z,98699.00
2023-04-26T08:53:38.224Z,98704.13
2023-04-26T08:56:44.222Z,98708.88
2023-04-26T08:59:46.845Z,98705.38
2023-04-26T09:02:52.520Z,98699.81
2023-04-26T09:05:55.857Z,98703.31
2023-04-26T09:08:58.893Z,98702.91
2023-04-26T09:12:03.246Z,98697.59
2023-04-26T09:15:07.321Z,98702.47
2023-04-26T09:18:21.791Z,98704.38
2023-04-26T09:21:24.422Z,98700.31
2023-04-26T09:24:27.047Z,98696.06
2023-04-26T09:27:37.453Z,98690.63
2023-04-26T09:30:40.431Z,98696.38
2023-04-26T09:34:02.118Z,98689.69
2023-04-26T09:37:04.850Z,98680.88
2023-04-26T09:40:11.873Z,98680.94
2023-04-26T09:43:15.979Z,98674.66
2023-04-26T09:46:23.880Z,98673.25
2023-04-26T09:49:28.958Z,98667.00
2023-04-26T09:52:31.775Z,98672.50
2023-04-26T09:55:35.920Z,98676.84
2023-04-26T09:58:39.674Z,98684.78
2023-04-26T10:01:42.652Z,98687.66
2023-04-26T10:04:48.133Z,98676.91
2023-04-26T10:07:51.842Z,98682.34
2023-04-26T10:10:55.487Z,98676.81
2023-04-26T10:13:58.124Z,98679.41
2023-04-26T10:17:01.641Z,98670.75
2023-04-26T10:20:10.114Z,98668.75
2023-04-26T10:23:20.161Z,98667.88
2023-04-26T10:26:48.199Z,98660.03
2023-04-26T10:30:12.201Z,98665.84
2023-04-26T10:33:15.188Z,98659.78
2023-04-26T10:36:21.114Z,98656.41
2023-04-26T10:39:25.096Z,98662.97
2023-04-26T10:42:30.278Z,98661.53
2023-04-26T10:45:33.083Z,98650.78
2023-04-26T10:48:35.767Z,98652.34
2023-04-26T10:51:39.765Z,98654.31
2023-04-26T10:54:52.709Z,98646.72
2023-04-26T10:57:57.386Z,98650.09
2023-04-26T11:01:07.120Z,98639.50
2023-04-26T11:04:11.616Z,98647.84
2023-04-26T11:07:16.230Z,98642.25
2023-04-26T11:10:23.852Z,98640.69
2023-04-26T11:13:26.653Z,98640.41
2023-04-26T11:16:30.077Z,98635.09
2023-04-26T11:19:32.844Z,98634.00
2023-04-26T11:22:40.792Z,98623.25
2023-04-26T11:25:43.394Z,98624.09
2023-04-26T11:28:46.537Z,98615.94
2023-04-26T11:31:54.516Z,98605.66
2023-04-26T11:35:01.407Z,98608.69
2023-04-26T11:38:06.619Z,98599.59
2023-04-26T11:41:10.461Z,98598.28
2023-04-26T11:44:13.151Z,98590.75
2023-04-26T11:47:15.767Z,98584.97
2023-04-26T11:50:18.991Z,98578.25
2023-04-26T11:53:23.442Z,98577.94
2023-04-26T11:56:26.862Z,98570.41
2023-04-26T11:59:29.748Z,98564.56
2023-04-26T12:02:32.423Z,98554.06
2023-04-26T12:05:35.151Z,98561.47
2023-04-26T12:08:39.124Z,98556.84
2023-04-26T12:11:41.795Z,98564.50
2023-04-26T12:14:45.449Z,98559.34
2023-04-26T12:17:58.289Z,98574.13
2023-04-26T12:21:01.294Z,98568.50
2023-04-26T12:24:05.777Z,98565.09
2023-04-26T12:27:08.546Z,98554.06
2023-04-26T12:30:11.631Z,98564.31
2023-04-26T12:33:17.457Z,98562.25
2023-04-26T12:36:21.162Z,98557.47
2023-04-26T12:39:25.119Z,98554.00
2023-04-26T12:42:27.793Z,98549.75
2023-04-26T12:45:30.451Z,98555.81
2023-04-26T12:48:34.201Z,98550.72
2023-04-26T12:51:36.772Z,98543.47
2023-04-26T12:54:40.682Z,98541.84
2023-04-26T12:57:44.576Z,98542.28
2023-04-26T13:00:47.128Z,98536.16
2023-04-26T13:03:49.888Z,98549.00
2023-04-26T13:06:53.015Z,98537.56
2023-04-26T13:09:56.983Z,98540.34
2023-04-26T13:12:59.759Z,98538.44
2023-04-26T13:16:02.412Z,98524.88
2023-04-26T13:19:05.161Z,98526.59
2023-04-26T13:22:10.008Z,98527.88
2023-04-26T13:25:15.687Z,98522.72
2023-04-26T13:28:18.234Z,98519.78
2023-04-26T13:31:21.109Z,98513.63
2023-04-26T13:34:23.647Z,98506.75
2023-04-26T13:37:27.006Z,98513.06
2023-04-26T13:40:31.063Z,98512.56
2023-04-26T13:43:33.639Z,98510.59
2023-04-26T13:46:36.749Z,98511.88
2023-04-26T13:49:40.084Z,98514.09
2023-04-26T13:52:42.924Z,98511.50
2023-04-26T13:55:46.901Z,98512.97
2023-04-26T13:58:49.794Z,98505.03
2023-04-26T14:01:54.704Z,98502.06
2023-04-26T14:04:58.523Z,98505.31
2023-04-26T14:08:01.290Z,98492.00
2023-04-26T14:11:06.127Z,98490.84
2023-04-26T14:14:08.694Z,98488.09
2023-04-26T14:17:11.660Z,98487.25
2023-04-26T14:20:14.047Z,98488.19
2023-04-26T14:23:16.955Z,98479.16
2023-04-26T14:26:21.533Z,98486.56
2023-04-26T14:29:24.127Z,98482.34
2023-04-26T14:32:26.922Z,98472.06
2023-04-26T14:35:29.518Z,98483.84
2023-04-26T14:38:32.431Z,98482.38
2023-04-26T14:41:36.353Z,98472.22
2023-04-26T14:44:38.971Z,98485.97
2023-04-26T14:47:41.547Z,98482.59
2023-04-26T14:50:44.197Z,98481.22
2023-04-26T14:53:47.071Z,98484.63
2023-04-26T14:56:51.424Z,98471.78
2023-04-26T14:59:54.113Z,98478.06
2023-04-26T15:02:56.873Z,98478.69
2023-04-26T15:05:59.929Z,98478.94
2023-04-26T15:09:02.549Z,98473.25
2023-04-26T15:12:07.920Z,98477.50
2023-04-26T15:15:11.333Z,98476.34
2023-04-26T15:18:16.738Z,98474.81
2023-04-26T15:21:19.663Z,98475.97
2023-04-26T15:24:22.524Z,98466.00
2023-04-26T15:27:26.938Z,98454.41
2023-04-26T15:30:30.323Z,98461.19
2023-04-26T15:33:32.920Z,98464.72
2023-04-26T15:36:35.520Z,98452.53
2023-04-26T15:39:38.289Z,98457.50
2023-04-26T15:42:42.196Z,98455.94
2023-04-26T15:45:44.763Z,98455.56
2023-04-26T15:48:48.164Z,98446.78
2023-04-26T15:51:50.729Z,98451.59
2023-04-26T15:54:53.383Z,98449.59
2023-04-26T15:57:57.554Z,98444.47
2023-04-26T16:01:00.332Z,98445.06
2023-04-26T16:04:03.348Z,98450.47
2023-04-26T16:07:05.975Z,98438.72
2023-04-26T16:10:10.117Z,98444.78
2023-04-26T16:13:16.373Z,98440.59
2023-04-26T16:16:19.302Z,98447.78
2023-04-26T16:19:22.932Z,98444.22
2023-04-26T16:22:25.730Z,98449.53
2023-04-26T16:28:32.069Z,98445.66
2023-04-26T16:31:34.896Z,98448.44
2023-04-26T16:34:37.534Z,98454.81
2023-04-26T16:37:41.742Z,98451.78
2023-04-26T16:40:44.345Z,98458.38
2023-04-26T16:43:48.509Z,98450.56
2023-04-26T16:46:51.182Z,98449.84
2023-04-26T16:49:53.926Z,98447.78
2023-04-26T16:52:56.559Z,98443.03
2023-04-26T16:55:59.365Z,98450.34
2023-04-26T16:59:03.249Z,98446.91
2023-04-26T17:02:06.061Z,98445.03
2023-04-26T17:05:10.026Z,98449.56
2023-04-26T17:08:12.718Z,98450.88
2023-04-26T17:11:16.145Z,98450.59
2023-04-26T17:14:19.901Z,98448.44
2023-04-26T17:17:22.529Z,98462.22
2023-04-26T17:20:25.161Z,98464.97
2023-04-26T17:23:27.867Z,98466.56
2023-04-26T17:26:30.945Z,98472.84
2023-04-26T17:29:35.116Z,98472.47
2023-04-26T17:32:37.854Z,98467.88
2023-04-26T17:35:40.441Z,98476.09
2023-04-26T17:38:43.344Z,98477.34
2023-04-26T17:41:46.008Z,98480.59
2023-04-26T17:44:49.973Z,98479.88
2023-04-26T17:47:52.554Z,98487.16
2023-04-26T17:50:55.148Z,98481.31
2023-04-26T17:53:57.864Z,98487.25
2023-04-26T17:57:00.465Z,98493.66
2023-04-26T18:00:05.474Z,98493.75
2023-04-26T18:03:08.432Z,98494.97
2023-04-26T18:06:11.481Z,98499.47
2023-04-26T18:09:14.083Z,98498.38
2023-04-26T18:12:16.743Z,98501.22
2023-04-26T18:15:20.864Z,98506.09
2023-04-26T18:18:25.187Z,98503.78
2023-04-26T18:21:29.748Z,98512.84
2023-04-26T18:24:32.294Z,98511.91
2023-04-26T18:27:34.990Z,98516.38
2023-04-26T18:30:38.948Z,98510.13
2023-04-26T18:33:41.493Z,98517.59
2023-04-26T18:36:44.222Z,98525.91
2023-04-26T18:39:46.830Z,98531.59
2023-04-26T18:42:49.523Z,98537.47
2023-04-26T18:45:53.501Z,98545.88
2023-04-26T18:48:56.280Z,98536.72
2023-04-26T18:51:58.810Z,98535.47
2023-04-26T18:55:01.348Z,98538.09
2023-04-26T18:58:03.980Z,98542.75
2023-04-26T19:01:08.071Z,98549.66
2023-04-26T19:04:10.929Z,98554.06
2023-04-26T19:07:13.629Z,98562.13
2023-04-26T19:10:16.565Z,98559.66
2023-04-26T19:13:19.630Z,98564.84
2023-04-26T19:16:23.750Z,98575.28
2023-04-26T19:19:26.427Z,98571.91
2023-04-26T19:22:29.075Z,98572.88
2023-04-26T19:25:31.646Z,98577.44
2023-04-26T19:28:34.478Z,98584.63
2023-04-26T19:31:38.860Z,98586.88
2023-04-26T19:34:41.502Z,98591.06
2023-04-26T19:37:44.080Z,98593.50
2023-04-26T19:40:46.808Z,98584.63
2023-04-26T19:43:49.494Z,98600.22
2023-04-26T19:46:53.761Z,98605.25
2023-04-26T19:49:57.837Z,98598.16
2023-04-26T19:53:00.478Z,98602.31
2023-04-26T19:56:03.100Z,98600.22
2023-04-26T19:59:06.033Z,98604.75
2023-04-26T20:02:10.153Z,98603.28
2023-04-26T20:05:13.230Z,98604.59
2023-04-26T20:08:15.817Z,98610.88
2023-04-26T20:11:19.231Z,98610.06
2023-04-26T20:14:21.756Z,98613.31
2023-04-26T20:17:25.800Z,98613.13
2023-04-26T20:20:28.599Z,98610.09
2023-04-26T20:23:31.401Z,98608.19
2023-04-26T20:26:33.936Z,98611.38
2023-04-26T20:29:37.177Z,98615.75
2023-04-26T20:32:41.109Z,98611.09
2023-04-26T20:35:43.704Z,98609.31
2023-04-26T20:38:46.322Z,98607.59
2023-04-26T20:41:48.881Z,98608.06
2023-04-26T20:44:51.470Z,98606.94
2023-04-26T20:47:55.558Z,98601.97
2023-04-26T20:50:58.724Z,98609.81
2023-04-26T20:54:01.369Z,98609.19
2023-04-26T20:57:04.460Z,98607.25
2023-04-26T21:00:10.348Z,98608.19
2023-04-26T21:03:14.613Z,98614.78
2023-04-26T21:06:17.264Z,98611.22
2023-04-26T21:09:19.840Z,98610.44
2023-04-26T21:12:22.457Z,98604.66
2023-04-26T21:15:25.044Z,98610.72
2023-04-26T21:18:28.946Z,98609.28
2023-04-26T21:21:32.612Z,98613.91
2023-04-26T21:24:35.298Z,98601.41
2023-04-26T21:27:37.877Z,98613.75
2023-04-26T21:30:40.509Z,98613.75
2023-04-26T21:33:44.380Z,98613.59
2023-04-26T21:36:47.319Z,98616.78
2023-04-26T21:39:49.933Z,98609.22
2023-04-26T21:43:03.911Z,98606.34
2023-04-26T21:46:07.905Z,98612.13
2023-04-26T21:49:12.211Z,98604.75
2023-04-26T21:52:14.875Z,98609.09
2023-04-26T21:55:17.482Z,98611.81
2023-04-26T21:58:20.562Z,98612.13
2023-04-26T22:01:23.378Z,98613.28
2023-04-26T22:04:27.290Z,98612.31
2023-04-26T22:07:30.104Z,98624.03
2023-04-26T22:10:32.899Z,98625.00
2023-04-26T22:13:35.777Z,98620.50
2023-04-26T22:16:38.278Z,98620.66
2023-04-26T22:19:42.188Z,98619.19
2023-04-26T22:22:44.743Z,98609.22
2023-04-26T22:25:47.374Z,98615.34
2023-04-26T22:28:49.893Z,98623.31
2023-04-26T22:31:52.487Z,98617.06
2023-04-26T22:34:56.402Z,98629.44
2023-04-26T22:37:59.020Z,98623.19
2023-04-26T22:41:01.531Z,98630.09
2023-04-26T22:44:04.077Z,98626.88
2023-04-26T22:47:06.657Z,98629.16
2023-04-26T22:50:11.797Z,98620.16
2023-04-26T22:53:14.384Z,98623.50
2023-04-26T22:56:17.033Z,98626.25
2023-04-26T22:59:19.616Z,98628.78
2023-04-26T23:02:22.343Z,98631.94
2023-04-26T23:05:26.338Z,98632.59
2023-04-26T23:08:28.840Z,98631.91
2023-04-26T23:11:31.802Z,98632.72
2023-04-26T23:14:35.105Z,98639.13
2023-04-26T23:17:39.009Z,98637.03
2023-04-26T23:20:42.888Z,98637.50
2023-04-26T23:23:45.395Z,98638.44
2023-04-26T23:26:47.932Z,98639.69
2023-04-26T23:29:50.967Z,98641.34
2023-04-26T23:32:53.559Z,98629.31
2023-04-26T23:35:57.702Z,98633.16
2023-04-26T23:39:00.212Z,98632.97
2023-04-26T23:42:03.727Z,98620.78
2023-04-26T23:45:07.759Z,98630.56
2023-04-26T23:48:10.371Z,98631.69
2023-04-26T23:51:14.349Z,98629.25
2023-04-26T23:54:17.004Z,98634.53
2023-04-26T23:57:19.582Z,98629.69
